createdAt,value
2023-01-17T00:00:36.501Z,68.47
2023-01-17T00:01:39.509Z,68.31
2023-01-17T00:02:42.696Z,68.22
2023-01-17T00:04:04.219Z,68.18
2023-01-17T00:05:25.943Z,68.10
2023-01-17T00:06:47.272Z,68.09
2023-01-17T00:08:08.859Z,68.16
2023-01-17T00:09:31.400Z,68.12
2023-01-17T00:10:36.419Z,68.12
2023-01-17T00:11:39.661Z,68.28
2023-01-17T00:12:48.600Z,68.24
2023-01-17T00:13:51.799Z,68.28
2023-01-17T00:14:55.959Z,68.12
2023-01-17T00:15:59.156Z,68.04
2023-01-17T00:17:02.277Z,67.97
2023-01-17T00:18:05.428Z,67.97
2023-01-17T00:19:26.709Z,67.97
2023-01-17T00:20:49.895Z,67.85
2023-01-17T00:21:54.758Z,67.73
2023-01-17T00:23:16.216Z,67.81
2023-01-17T00:24:37.606Z,67.78
2023-01-17T00:25:59.146Z,67.58
2023-01-17T00:27:13.996Z,67.58
2023-01-17T00:28:17.250Z,67.76
2023-01-17T00:29:20.175Z,67.76
2023-01-17T00:30:23.214Z,67.82
2023-01-17T00:31:26.122Z,67.94
2023-01-17T00:32:29.002Z,67.85
2023-01-17T00:33:32.455Z,67.86
2023-01-17T00:34:35.363Z,68.09
2023-01-17T00:35:38.551Z,68.09
2023-01-17T00:36:41.569Z,68.10
2023-01-17T00:37:44.562Z,68.02
2023-01-17T00:38:47.484Z,68.10
2023-01-17T00:39:50.371Z,68.10
2023-01-17T00:40:53.380Z,68.02
2023-01-17T00:41:57.077Z,68.05
2023-01-17T00:43:18.765Z,67.88
2023-01-17T00:44:40.148Z,67.92
2023-01-17T00:46:02.424Z,67.92
2023-01-17T00:47:24.138Z,67.92
2023-01-17T00:48:45.488Z,67.96
2023-01-17T00:50:07.065Z,68.03
2023-01-17T00:51:28.736Z,68.01
2023-01-17T00:52:50.316Z,68.06
2023-01-17T00:54:11.958Z,67.97
2023-01-17T00:55:33.643Z,68.10
2023-01-17T00:56:55.476Z,67.99
2023-01-17T00:58:17.047Z,68.16
2023-01-17T00:59:38.716Z,68.11
2023-01-17T01:01:00.406Z,68.20
2023-01-17T01:02:21.822Z,68.38
2023-01-17T01:03:43.088Z,68.29
2023-01-17T01:05:04.710Z,68.37
2023-01-17T01:06:27.161Z,68.30
2023-01-17T01:07:48.694Z,68.33
2023-01-17T01:09:10.385Z,68.43
2023-01-17T01:10:31.965Z,68.43
2023-01-17T01:11:53.716Z,68.47
2023-01-17T01:13:15.382Z,68.50
2023-01-17T01:14:36.783Z,68.47
2023-01-17T01:15:58.081Z,68.35
2023-01-17T01:17:19.568Z,68.35
2023-01-17T01:18:41.119Z,68.42
2023-01-17T01:20:02.694Z,68.35
2023-01-17T01:21:24.201Z,68.40
2023-01-17T01:22:45.837Z,68.46
2023-01-17T01:24:07.482Z,68.61
2023-01-17T01:25:29.191Z,68.55
2023-01-17T01:26:50.558Z,68.58
2023-01-17T01:28:13.421Z,68.67
2023-01-17T01:29:35.079Z,68.72
2023-01-17T01:30:56.613Z,68.93
2023-01-17T01:32:17.865Z,68.93
2023-01-17T01:33:20.769Z,68.97
2023-01-17T01:34:23.966Z,68.91
2023-01-17T01:35:27.110Z,69.02
2023-01-17T01:36:30.372Z,69.16
2023-01-17T01:37:33.412Z,69.13
2023-01-17T01:38:36.781Z,69.12
2023-01-17T01:39:39.846Z,69.16
2023-01-17T01:40:46.085Z,69.08
2023-01-17T01:41:49.158Z,69.08
2023-01-17T01:42:55.086Z,69.12
2023-01-17T01:43:58.294Z,69.05
2023-01-17T01:45:03.059Z,68.93
2023-01-17T01:46:08.426Z,68.91
2023-01-17T01:47:17.310Z,68.87
2023-01-17T01:48:30.112Z,68.78
2023-01-17T01:49:33.207Z,68.74
2023-01-17T01:50:36.998Z,68.75
2023-01-17T01:51:43.310Z,68.79
2023-01-17T01:52:49.710Z,68.70
2023-01-17T01:53:55.889Z,68.53
2023-01-17T01:55:02.476Z,68.69
2023-01-17T01:56:09.335Z,68.55
2023-01-17T01:57:15.969Z,68.55
2023-01-17T01:58:25.398Z,68.57
2023-01-17T01:59:30.262Z,68.54
2023-01-17T02:00:36.013Z,68.50
2023-01-17T02:01:39.325Z,68.46
2023-01-17T02:02:43.970Z,68.59
2023-01-17T02:03:48.803Z,68.56
2023-01-17T02:04:52.164Z,68.38
2023-01-17T02:05:56.053Z,68.44
2023-01-17T02:07:07.620Z,68.46
2023-01-17T02:08:14.768Z,68.44
2023-01-17T02:09:19.745Z,68.33
2023-01-17T02:10:23.535Z,68.31
2023-01-17T02:11:27.197Z,68.41
2023-01-17T02:12:30.790Z,68.52
2023-01-17T02:13:33.847Z,68.44
2023-01-17T02:14:36.895Z,68.43
2023-01-17T02:16:04.872Z,68.53
2023-01-17T02:17:26.518Z,68.55
2023-01-17T02:18:53.101Z,68.66
2023-01-17T02:20:21.014Z,68.63
2023-01-17T02:21:36.564Z,68.68
2023-01-17T02:23:07.597Z,68.78
2023-01-17T02:24:21.175Z,68.84
2023-01-17T02:25:43.621Z,68.85
2023-01-17T02:27:03.268Z,68.89
2023-01-17T02:28:29.866Z,68.81
2023-01-17T02:30:09.770Z,68.82
2023-01-17T02:31:19.169Z,68.91
2023-01-17T02:32:34.494Z,68.91
2023-01-17T02:33:46.857Z,68.81
2023-01-17T02:35:08.427Z,68.99
2023-01-17T02:36:24.243Z,68.90
2023-01-17T02:37:56.814Z,69.04
2023-01-17T02:39:03.559Z,69.08
2023-01-17T02:40:10.915Z,69.16
2023-01-17T02:41:17.541Z,69.22
2023-01-17T02:42:25.684Z,69.29
2023-01-17T02:43:29.085Z,69.30
2023-01-17T02:44:35.782Z,69.30
2023-01-17T02:45:38.860Z,69.43
2023-01-17T02:46:51.292Z,69.40
2023-01-17T02:47:54.451Z,69.37
2023-01-17T02:48:58.210Z,69.18
2023-01-17T02:50:10.857Z,69.11
2023-01-17T02:51:32.585Z,69.21
2023-01-17T02:52:57.432Z,69.29
2023-01-17T02:54:10.141Z,69.39
2023-01-17T02:55:19.516Z,69.29
2023-01-17T02:56:42.556Z,69.24
2023-01-17T02:58:06.786Z,69.36
2023-01-17T02:59:16.176Z,69.27
2023-01-17T03:00:34.953Z,69.07
2023-01-17T03:01:53.668Z,69.05
2023-01-17T03:03:09.484Z,69.11
2023-01-17T03:04:21.937Z,69.00
2023-01-17T03:05:55.731Z,68.96
2023-01-17T03:07:02.458Z,68.93
2023-01-17T03:08:07.067Z,69.03
2023-01-17T03:09:10.366Z,68.95
2023-01-17T03:10:17.419Z,68.93
2023-01-17T03:11:20.806Z,68.83
2023-01-17T03:12:29.485Z,68.84
2023-01-17T03:13:32.644Z,68.77
2023-01-17T03:14:35.703Z,68.86
2023-01-17T03:15:39.969Z,68.89
2023-01-17T03:16:43.951Z,69.01
2023-01-17T03:17:50.211Z,68.98
2023-01-17T03:18:56.435Z,69.11
2023-01-17T03:19:59.584Z,69.11
2023-01-17T03:21:02.860Z,69.00
2023-01-17T03:22:05.926Z,69.00
2023-01-17T03:23:09.181Z,68.98
2023-01-17T03:24:12.414Z,68.89
2023-01-17T03:25:16.812Z,68.89
2023-01-17T03:26:19.985Z,68.89
2023-01-17T03:27:23.056Z,68.78
2023-01-17T03:28:26.198Z,68.95
2023-01-17T03:29:29.276Z,68.85
2023-01-17T03:30:32.480Z,68.83
2023-01-17T03:31:35.513Z,69.01
2023-01-17T03:32:38.557Z,68.89
2023-01-17T03:33:41.799Z,69.03
2023-01-17T03:34:44.985Z,68.91
2023-01-17T03:35:48.059Z,68.98
2023-01-17T03:36:51.229Z,68.87
2023-01-17T03:37:54.385Z,68.87
2023-01-17T03:38:57.445Z,68.82
2023-01-17T03:40:00.520Z,68.76
2023-01-17T03:41:04.210Z,68.83
2023-01-17T03:42:07.379Z,68.75
2023-01-17T03:43:11.256Z,68.66
2023-01-17T03:44:14.428Z,68.69
2023-01-17T03:45:17.714Z,68.71
2023-01-17T03:46:23.395Z,68.73
2023-01-17T03:47:26.565Z,68.79
2023-01-17T03:48:29.806Z,68.79
2023-01-17T03:49:32.892Z,68.68
2023-01-17T03:50:36.323Z,68.69
2023-01-17T03:51:39.496Z,68.72
2023-01-17T03:52:42.636Z,68.73
2023-01-17T03:53:49.389Z,68.88
2023-01-17T03:54:52.645Z,68.79
2023-01-17T03:55:55.718Z,68.85
2023-01-17T03:56:58.807Z,68.88
2023-01-17T03:58:01.872Z,68.95
2023-01-17T03:59:04.997Z,68.99
2023-01-17T04:00:09.294Z,69.13
2023-01-17T04:01:12.541Z,69.18
2023-01-17T04:02:15.715Z,69.13
2023-01-17T04:03:19.053Z,69.17
2023-01-17T04:04:22.567Z,69.19
2023-01-17T04:05:25.765Z,69.32
2023-01-17T04:06:29.053Z,69.21
2023-01-17T04:07:32.147Z,69.29
2023-01-17T04:08:35.309Z,69.45
2023-01-17T04:09:38.458Z,69.49
2023-01-17T04:10:41.597Z,69.51
2023-01-17T04:11:44.632Z,69.44
2023-01-17T04:12:47.971Z,69.49
2023-01-17T04:13:51.117Z,69.65
2023-01-17T04:14:54.058Z,69.67
2023-01-17T04:15:57.193Z,69.59
2023-01-17T04:17:00.840Z,69.76
2023-01-17T04:18:04.893Z,69.69
2023-01-17T04:19:11.542Z,69.88
2023-01-17T04:20:20.960Z,69.97
2023-01-17T04:21:24.240Z,69.91
2023-01-17T04:22:27.382Z,70.00
2023-01-17T04:23:30.575Z,70.03
2023-01-17T04:24:33.532Z,70.17
2023-01-17T04:25:36.784Z,70.11
2023-01-17T04:26:39.854Z,70.31
2023-01-17T04:27:42.990Z,70.35
2023-01-17T04:28:46.184Z,70.26
2023-01-17T04:29:49.322Z,70.31
2023-01-17T04:30:52.335Z,70.31
2023-01-17T04:31:55.491Z,70.35
2023-01-17T04:32:58.518Z,70.48
2023-01-17T04:34:01.588Z,70.45
2023-01-17T04:35:06.576Z,70.48
2023-01-17T04:36:10.900Z,70.52
2023-01-17T04:37:14.057Z,70.67
2023-01-17T04:38:17.215Z,70.57
2023-01-17T04:39:20.322Z,70.76
2023-01-17T04:40:23.522Z,70.80
2023-01-17T04:41:26.765Z,70.71
2023-01-17T04:42:30.065Z,70.86
2023-01-17T04:43:33.222Z,70.91
2023-01-17T04:44:36.391Z,71.00
2023-01-17T04:45:39.749Z,71.04
2023-01-17T04:46:43.129Z,71.07
2023-01-17T04:47:46.271Z,70.98
2023-01-17T04:48:49.431Z,71.13
2023-01-17T04:49:53.188Z,71.18
2023-01-17T04:51:00.640Z,71.19
2023-01-17T04:52:03.914Z,71.08
2023-01-17T04:53:07.415Z,71.12
2023-01-17T04:54:10.766Z,71.12
2023-01-17T04:55:15.174Z,71.22
2023-01-17T04:56:19.351Z,71.21
2023-01-17T04:57:22.692Z,71.25
2023-01-17T04:58:26.184Z,71.28
2023-01-17T04:59:29.650Z,71.20
2023-01-17T05:00:33.326Z,71.20
2023-01-17T05:01:36.651Z,71.26
2023-01-17T05:02:39.984Z,71.18
2023-01-17T05:03:43.073Z,71.13
2023-01-17T05:04:46.248Z,71.15
2023-01-17T05:05:49.410Z,71.28
2023-01-17T05:06:52.786Z,71.22
2023-01-17T05:07:57.010Z,71.25
2023-01-17T05:09:02.016Z,71.27
2023-01-17T05:10:06.141Z,71.36
2023-01-17T05:11:09.336Z,71.27
2023-01-17T05:12:12.557Z,71.25
2023-01-17T05:13:15.876Z,71.23
2023-01-17T05:14:19.062Z,71.08
2023-01-17T05:15:22.765Z,71.09
2023-01-17T05:16:26.316Z,71.16
2023-01-17T05:17:29.468Z,71.05
2023-01-17T05:18:32.662Z,71.06
2023-01-17T05:19:35.837Z,71.15
2023-01-17T05:20:39.006Z,71.22
2023-01-17T05:21:42.060Z,71.16
2023-01-17T05:22:46.787Z,71.21
2023-01-17T05:23:50.265Z,71.26
2023-01-17T05:24:53.433Z,71.27
2023-01-17T05:25:56.575Z,71.30
2023-01-17T05:27:01.639Z,71.32
2023-01-17T05:28:05.149Z,71.33
2023-01-17T05:29:08.760Z,71.23
2023-01-17T05:30:13.461Z,71.15
2023-01-17T05:31:16.660Z,71.12
2023-01-17T05:32:19.689Z,71.09
2023-01-17T05:33:22.751Z,71.12
2023-01-17T05:34:25.949Z,71.14
2023-01-17T05:35:32.093Z,71.10
2023-01-17T05:36:35.061Z,71.10
2023-01-17T05:37:38.104Z,71.14
2023-01-17T05:38:41.171Z,71.11
2023-01-17T05:39:44.371Z,71.11
2023-01-17T05:40:47.414Z,71.03
2023-01-17T05:41:50.472Z,71.17
2023-01-17T05:42:56.060Z,71.11
2023-01-17T05:43:59.252Z,71.28
2023-01-17T05:45:02.434Z,71.24
2023-01-17T05:46:05.679Z,71.35
2023-01-17T05:47:08.782Z,71.28
2023-01-17T05:48:11.847Z,71.17
2023-01-17T05:49:15.027Z,71.13
2023-01-17T05:50:23.434Z,71.23
2023-01-17T05:51:26.423Z,71.28
2023-01-17T05:52:29.567Z,71.33
2023-01-17T05:53:32.685Z,71.24
2023-01-17T05:54:35.801Z,71.29
2023-01-17T05:55:40.068Z,71.24
2023-01-17T05:56:43.348Z,71.26
2023-01-17T05:57:46.600Z,71.19
2023-01-17T05:58:49.652Z,71.19
2023-01-17T05:59:52.722Z,71.16
2023-01-17T06:00:56.153Z,71.23
2023-01-17T06:01:59.181Z,71.13
2023-01-17T06:03:02.239Z,70.95
2023-01-17T06:04:05.428Z,70.96
2023-01-17T06:05:09.145Z,70.98
2023-01-17T06:06:13.587Z,71.00
2023-01-17T06:07:17.029Z,71.14
2023-01-17T06:08:20.122Z,71.14
2023-01-17T06:09:23.546Z,71.08
2023-01-17T06:10:27.951Z,71.21
2023-01-17T06:11:31.327Z,71.21
2023-01-17T06:12:34.659Z,71.27
2023-01-17T06:13:37.993Z,71.12
2023-01-17T06:14:41.392Z,71.12
2023-01-17T06:15:44.861Z,71.20
2023-01-17T06:16:48.081Z,71.22
2023-01-17T06:17:51.162Z,71.23
2023-01-17T06:18:54.319Z,71.24
2023-01-17T06:19:57.539Z,71.25
2023-01-17T06:21:00.598Z,71.32
2023-01-17T06:22:04.728Z,71.34
2023-01-17T06:23:11.031Z,71.37
2023-01-17T06:24:14.656Z,71.34
2023-01-17T06:25:17.826Z,71.04
2023-01-17T06:26:20.986Z,70.91
2023-01-17T06:27:24.046Z,70.87
2023-01-17T06:28:27.253Z,70.87
2023-01-17T06:29:30.439Z,70.90
2023-01-17T06:30:34.355Z,70.95
2023-01-17T06:31:37.567Z,70.85
2023-01-17T06:32:40.602Z,70.93
2023-01-17T06:33:43.768Z,70.88
2023-01-17T06:34:46.898Z,70.81
2023-01-17T06:35:51.486Z,70.84
2023-01-17T06:36:54.663Z,70.71
2023-01-17T06:37:59.755Z,70.73
2023-01-17T06:39:03.006Z,70.94
2023-01-17T06:40:07.258Z,70.97
2023-01-17T06:41:10.336Z,70.98
2023-01-17T06:42:13.610Z,70.79
2023-01-17T06:43:16.811Z,70.62
2023-01-17T06:44:19.990Z,70.54
2023-01-17T06:45:23.161Z,70.65
2023-01-17T06:46:26.350Z,70.57
2023-01-17T06:47:29.479Z,70.51
2023-01-17T06:48:32.739Z,70.33
2023-01-17T06:49:35.806Z,70.15
2023-01-17T06:50:38.934Z,70.04
2023-01-17T06:51:43.631Z,70.13
2023-01-17T06:52:56.435Z,70.14
2023-01-17T06:53:59.537Z,70.10
2023-01-17T06:55:02.627Z,70.01
2023-01-17T06:56:06.361Z,70.11
2023-01-17T06:57:09.523Z,70.28
2023-01-17T06:58:12.564Z,70.33
2023-01-17T06:59:15.776Z,70.25
2023-01-17T07:00:19.209Z,70.22
2023-01-17T07:01:22.525Z,70.27
2023-01-17T07:02:25.795Z,70.29
2023-01-17T07:03:29.122Z,70.26
2023-01-17T07:04:34.126Z,70.29
2023-01-17T07:05:37.340Z,70.36
2023-01-17T07:06:40.642Z,70.43
2023-01-17T07:07:45.031Z,70.47
2023-01-17T07:08:48.411Z,70.58
2023-01-17T07:09:51.497Z,70.52
2023-01-17T07:10:58.358Z,70.51
2023-01-17T07:12:01.978Z,70.31
2023-01-17T07:13:05.136Z,70.30
2023-01-17T07:14:11.759Z,70.31
2023-01-17T07:15:15.001Z,70.25
2023-01-17T07:16:18.056Z,70.22
2023-01-17T07:17:21.199Z,70.09
2023-01-17T07:18:24.376Z,70.12
2023-01-17T07:19:27.529Z,70.03
2023-01-17T07:20:30.810Z,70.15
2023-01-17T07:21:33.860Z,69.99
2023-01-17T07:22:37.101Z,69.84
2023-01-17T07:23:40.256Z,69.85
2023-01-17T07:24:43.415Z,69.73
2023-01-17T07:25:54.740Z,69.80
2023-01-17T07:26:58.005Z,69.60
2023-01-17T07:28:01.190Z,69.51
2023-01-17T07:29:04.770Z,69.64
2023-01-17T07:30:09.238Z,69.57
2023-01-17T07:31:12.409Z,69.62
2023-01-17T07:32:15.527Z,69.54
2023-01-17T07:33:18.803Z,69.32
2023-01-17T07:34:22.094Z,69.23
2023-01-17T07:35:28.141Z,69.21
2023-01-17T07:36:31.424Z,69.19
2023-01-17T07:37:34.608Z,69.19
2023-01-17T07:38:37.829Z,69.02
2023-01-17T07:39:40.995Z,68.89
2023-01-17T07:40:44.878Z,68.79
2023-01-17T07:41:48.046Z,68.71
2023-01-17T07:42:51.128Z,68.63
2023-01-17T07:43:56.320Z,68.58
2023-01-17T07:45:00.113Z,68.54
2023-01-17T07:46:06.464Z,68.40
2023-01-17T07:47:09.890Z,68.28
2023-01-17T07:48:13.169Z,68.18
2023-01-17T07:49:16.251Z,68.08
2023-01-17T07:50:19.448Z,68.08
2023-01-17T07:51:22.636Z,68.01
2023-01-17T07:52:25.832Z,67.91
2023-01-17T07:53:30.998Z,67.90
2023-01-17T07:54:34.220Z,67.91
2023-01-17T07:55:37.391Z,68.00
2023-01-17T07:56:42.577Z,68.02
2023-01-17T07:57:50.497Z,67.98
2023-01-17T07:58:53.699Z,67.95
2023-01-17T07:59:57.050Z,67.97
2023-01-17T08:01:08.749Z,67.97
2023-01-17T08:02:21.120Z,67.89
2023-01-17T08:03:24.363Z,67.88
2023-01-17T08:04:28.241Z,67.94
2023-01-17T08:05:31.458Z,67.88
2023-01-17T08:06:34.670Z,67.82
2023-01-17T08:07:38.074Z,67.85
2023-01-17T08:08:41.202Z,67.86
2023-01-17T08:09:46.349Z,67.67
2023-01-17T08:10:51.018Z,67.60
2023-01-17T08:11:54.289Z,67.35
2023-01-17T08:12:57.588Z,67.42
2023-01-17T08:14:00.759Z,67.39
2023-01-17T08:15:04.895Z,67.55
2023-01-17T08:16:10.610Z,67.69
2023-01-17T08:17:15.778Z,67.81
2023-01-17T08:18:18.995Z,67.86
2023-01-17T08:19:22.232Z,67.95
2023-01-17T08:20:27.978Z,67.72
2023-01-17T08:21:31.206Z,67.72
2023-01-17T08:22:34.385Z,67.59
2023-01-17T08:23:37.400Z,67.72
2023-01-17T08:24:41.437Z,67.63
2023-01-17T08:25:44.623Z,67.51
2023-01-17T08:26:47.720Z,67.41
2023-01-17T08:27:51.758Z,67.26
2023-01-17T08:28:56.331Z,67.15
2023-01-17T08:29:59.552Z,67.18
2023-01-17T08:31:09.153Z,67.11
2023-01-17T08:32:13.389Z,67.04
2023-01-17T08:33:16.594Z,66.86
2023-01-17T08:34:19.710Z,66.96
2023-01-17T08:35:22.918Z,66.94
2023-01-17T08:36:28.040Z,66.94
2023-01-17T08:37:31.065Z,66.83
2023-01-17T08:38:34.343Z,66.81
2023-01-17T08:39:37.583Z,66.62
2023-01-17T08:40:40.606Z,66.54
2023-01-17T08:41:43.805Z,66.57
2023-01-17T08:42:57.853Z,66.60
2023-01-17T08:44:01.475Z,66.49
2023-01-17T08:45:07.902Z,66.57
2023-01-17T08:46:11.551Z,66.45
2023-01-17T08:47:14.836Z,66.53
2023-01-17T08:48:18.034Z,66.39
2023-01-17T08:49:21.189Z,66.24
2023-01-17T08:50:25.512Z,66.16
2023-01-17T08:51:29.475Z,66.11
2023-01-17T08:52:32.848Z,66.23
2023-01-17T08:53:36.048Z,66.32
2023-01-17T08:54:39.231Z,66.24
2023-01-17T08:55:42.471Z,66.26
2023-01-17T08:56:47.438Z,66.28
2023-01-17T08:57:51.183Z,66.03
2023-01-17T08:58:54.369Z,65.99
2023-01-17T08:59:58.509Z,65.91
2023-01-17T09:01:02.913Z,65.87
2023-01-17T09:02:11.481Z,65.76
2023-01-17T09:03:14.720Z,65.63
2023-01-17T09:04:18.040Z,65.64
2023-01-17T09:05:21.066Z,65.64
2023-01-17T09:06:24.345Z,65.75
2023-01-17T09:07:27.911Z,65.79
2023-01-17T09:08:31.279Z,65.70
2023-01-17T09:09:34.393Z,65.61
2023-01-17T09:10:37.547Z,65.64
2023-01-17T09:11:40.751Z,65.47
2023-01-17T09:12:43.944Z,65.53
2023-01-17T09:13:47.129Z,65.42
2023-01-17T09:14:50.306Z,65.42
2023-01-17T09:15:58.848Z,65.40
2023-01-17T09:17:02.065Z,65.35
2023-01-17T09:18:05.255Z,65.41
2023-01-17T09:19:09.738Z,65.28
2023-01-17T09:20:13.215Z,65.19
2023-01-17T09:21:17.445Z,65.13
2023-01-17T09:22:20.589Z,65.16
2023-01-17T09:23:24.587Z,65.23
2023-01-17T09:24:27.674Z,65.11
2023-01-17T09:25:30.853Z,65.08
2023-01-17T09:26:35.076Z,64.94
2023-01-17T09:27:38.259Z,64.94
2023-01-17T09:28:42.147Z,65.12
2023-01-17T09:29:45.347Z,65.17
2023-01-17T09:30:48.705Z,65.19
2023-01-17T09:31:51.750Z,65.20
2023-01-17T09:32:55.157Z,65.23
2023-01-17T09:33:58.346Z,65.22
2023-01-17T09:35:02.650Z,65.25
2023-01-17T09:36:06.583Z,65.19
2023-01-17T09:37:09.687Z,65.20
2023-01-17T09:38:13.936Z,65.27
2023-01-17T09:39:17.156Z,65.17
2023-01-17T09:40:23.887Z,65.17
2023-01-17T09:41:36.705Z,65.09
2023-01-17T09:42:40.681Z,65.18
2023-01-17T09:44:03.913Z,65.10
2023-01-17T09:45:13.484Z,65.02
2023-01-17T09:46:23.760Z,65.07
2023-01-17T09:47:36.618Z,65.05
2023-01-17T09:48:40.361Z,64.92
2023-01-17T09:49:45.779Z,64.92
2023-01-17T09:51:01.426Z,64.92
2023-01-17T09:52:06.606Z,64.81
2023-01-17T09:53:16.317Z,64.74
2023-01-17T09:54:24.811Z,64.84
2023-01-17T09:55:36.845Z,64.67
2023-01-17T09:56:46.593Z,64.59
2023-01-17T09:58:02.302Z,64.46
2023-01-17T09:59:33.166Z,64.39
2023-01-17T10:00:36.617Z,64.28
2023-01-17T10:02:01.301Z,64.41
2023-01-17T10:03:32.262Z,64.34
2023-01-17T10:04:39.066Z,64.32
2023-01-17T10:06:20.520Z,64.37
2023-01-17T10:07:46.700Z,64.37
2023-01-17T10:10:21.022Z,64.30
2023-01-17T10:11:39.635Z,64.19
2023-01-17T10:12:51.988Z,64.06
2023-01-17T10:14:10.494Z,64.13
2023-01-17T10:15:35.484Z,64.11
2023-01-17T10:18:33.978Z,64.08
2023-01-17T10:21:14.191Z,64.07
2023-01-17T10:22:37.193Z,63.97
2023-01-17T10:24:03.158Z,64.00
2023-01-17T10:25:15.898Z,64.13
2023-01-17T10:26:24.972Z,64.11
2023-01-17T10:27:40.733Z,64.08
2023-01-17T10:28:50.581Z,64.12
2023-01-17T10:29:53.649Z,64.17
2023-01-17T10:31:03.449Z,64.08
2023-01-17T10:32:10.253Z,63.92
2023-01-17T10:33:19.684Z,64.13
2023-01-17T10:34:38.464Z,64.12
2023-01-17T10:35:45.106Z,64.20
2023-01-17T10:36:59.665Z,64.18
2023-01-17T10:38:06.372Z,64.18
2023-01-17T10:39:21.916Z,64.08
2023-01-17T13:56:32.685Z,71.39
2023-01-17T13:57:43.126Z,71.36
2023-01-17T13:58:51.030Z,71.28
2023-01-17T13:59:56.039Z,71.12
2023-01-17T14:00:59.559Z,71.13
2023-01-17T14:02:02.850Z,71.16
2023-01-17T14:03:09.637Z,71.16
2023-01-17T14:04:13.088Z,71.02
2023-01-17T14:05:22.315Z,71.01
2023-01-17T14:06:31.146Z,70.98
2023-01-17T14:07:37.418Z,71.01
2023-01-17T14:08:44.127Z,70.94
2023-01-17T14:09:49.860Z,70.91
2023-01-17T14:10:56.115Z,70.73
2023-01-17T14:12:14.656Z,70.64
2023-01-17T14:13:35.954Z,70.59
2023-01-17T14:15:55.959Z,70.48
2023-01-17T14:17:17.371Z,70.32
2023-01-17T14:18:38.720Z,70.25
2023-01-17T14:19:50.133Z,70.10
2023-01-17T14:20:56.894Z,70.03
2023-01-17T14:22:21.900Z,69.68
2023-01-17T14:23:28.659Z,69.68
2023-01-17T14:24:32.150Z,69.74
2023-01-17T14:25:40.369Z,69.56
2023-01-17T14:26:56.045Z,69.54
2023-01-17T14:28:02.746Z,69.54
2023-01-17T14:29:38.343Z,69.37
2023-01-17T14:30:42.022Z,69.37
2023-01-17T14:31:46.058Z,69.35
2023-01-17T14:33:02.429Z,69.35
2023-01-17T14:34:13.168Z,69.46
2023-01-17T14:35:21.163Z,69.33
2023-01-17T14:36:32.446Z,69.39
2023-01-17T14:37:43.010Z,69.37
2023-01-17T14:38:45.871Z,69.32
2023-01-17T14:39:50.746Z,69.34
2023-01-17T14:41:04.167Z,69.41
2023-01-17T14:42:10.901Z,69.58
2023-01-17T14:43:17.284Z,69.56
2023-01-17T14:44:21.300Z,69.73
2023-01-17T14:45:28.235Z,69.77
2023-01-17T14:46:32.104Z,69.69
2023-01-17T14:47:40.680Z,69.79
2023-01-17T14:48:43.869Z,69.63
2023-01-17T14:49:46.948Z,69.70
2023-01-17T14:51:01.182Z,69.58
2023-01-17T14:52:05.770Z,69.48
2023-01-17T14:53:15.672Z,69.41
2023-01-17T14:54:21.493Z,69.35
2023-01-17T14:55:26.533Z,69.28
2023-01-17T14:56:30.844Z,69.21
2023-01-17T14:57:34.031Z,69.21
2023-01-17T14:58:38.698Z,69.01
2023-01-17T14:59:41.896Z,68.98
2023-01-17T15:00:45.333Z,68.80
2023-01-17T15:02:07.221Z,68.82
2023-01-17T15:03:03.737Z,68.77
2023-01-17T15:04:06.937Z,68.68
2023-01-17T15:05:15.245Z,68.75
2023-01-17T15:06:24.472Z,68.67
2023-01-17T15:07:28.257Z,68.60
2023-01-17T15:08:34.827Z,68.54
2023-01-17T15:09:38.317Z,68.48
2023-01-17T15:10:48.058Z,68.50
2023-01-17T15:11:52.798Z,68.26
2023-01-17T15:12:59.502Z,68.18
2023-01-17T15:14:05.405Z,68.15
2023-01-17T15:15:29.728Z,68.24
2023-01-17T15:16:35.932Z,68.16
2023-01-17T15:17:39.130Z,68.12
2023-01-17T15:18:42.819Z,68.02
2023-01-17T15:19:49.171Z,68.18
2023-01-17T15:21:03.325Z,68.20
2023-01-17T15:22:06.705Z,68.10
2023-01-17T15:23:13.315Z,68.08
2023-01-17T15:24:22.660Z,68.05
2023-01-17T15:25:26.639Z,67.92
2023-01-17T15:26:33.636Z,67.90
2023-01-17T15:27:37.746Z,67.97
2023-01-17T15:28:41.843Z,67.97
2023-01-17T15:29:46.197Z,67.87
2023-01-17T15:31:01.897Z,67.71
2023-01-17T15:32:06.773Z,67.71
2023-01-17T15:33:13.487Z,67.74
2023-01-17T15:34:38.078Z,67.68
2023-01-17T15:35:41.164Z,67.62
2023-01-17T15:36:47.772Z,67.58
2023-01-17T15:37:55.382Z,67.48
2023-01-17T15:39:01.667Z,67.41
2023-01-17T15:40:17.397Z,67.32
2023-01-17T15:41:22.487Z,67.30
2023-01-17T15:42:30.715Z,67.41
2023-01-17T15:43:35.300Z,67.42
2023-01-17T15:44:49.546Z,67.28
2023-01-17T15:45:58.072Z,67.35
2023-01-17T15:47:01.288Z,67.28
2023-01-17T15:48:33.753Z,67.25
2023-01-17T15:49:36.741Z,67.24
2023-01-17T15:50:42.650Z,67.19
2023-01-17T15:51:54.887Z,67.09
2023-01-17T15:53:01.358Z,67.11
2023-01-17T15:54:24.773Z,67.10
2023-01-17T15:55:33.802Z,67.16
2023-01-17T15:56:37.338Z,67.03
2023-01-17T15:57:43.475Z,66.96
2023-01-17T15:58:48.500Z,67.11
2023-01-17T16:00:17.775Z,67.08
2023-01-17T16:01:26.932Z,67.20
2023-01-17T16:02:44.672Z,67.20
2023-01-17T16:03:54.576Z,67.08
2023-01-17T16:04:59.186Z,67.12
2023-01-17T16:06:03.900Z,67.01
2023-01-17T16:07:13.025Z,66.96
2023-01-17T16:08:28.802Z,66.87
2023-01-17T16:09:38.191Z,66.89
2023-01-17T16:10:42.589Z,66.83
2023-01-17T16:11:45.785Z,66.98
2023-01-17T16:12:51.987Z,66.87
2023-01-17T16:13:55.412Z,66.93
2023-01-17T16:15:11.687Z,67.06
2023-01-17T16:16:15.091Z,67.08
2023-01-17T16:17:18.312Z,67.08
2023-01-17T16:18:23.832Z,67.13
2023-01-17T16:19:27.156Z,66.98
2023-01-17T16:20:48.589Z,66.96
2023-01-17T16:21:51.782Z,66.92
2023-01-17T16:22:54.972Z,66.95
2023-01-17T16:23:59.256Z,66.87
2023-01-17T16:25:02.504Z,66.99
2023-01-17T16:26:05.925Z,66.91
2023-01-17T16:27:09.113Z,66.90
2023-01-17T16:28:12.335Z,66.86
2023-01-17T16:29:15.523Z,67.03
2023-01-17T16:30:22.357Z,67.09
2023-01-17T16:31:25.630Z,67.10
2023-01-17T16:32:28.753Z,67.09
2023-01-17T16:33:31.948Z,66.99
2023-01-17T16:34:35.468Z,67.03
2023-01-17T16:35:39.743Z,67.12
2023-01-17T16:36:42.943Z,67.06
2023-01-17T16:37:52.165Z,67.07
2023-01-17T16:38:55.548Z,67.04
2023-01-17T16:39:58.714Z,66.98
2023-01-17T16:41:03.985Z,66.99
2023-01-17T16:42:08.855Z,67.02
2023-01-17T16:43:13.635Z,66.94
2023-01-17T16:44:16.815Z,66.92
2023-01-17T16:45:20.058Z,66.87
2023-01-17T16:46:23.161Z,66.87
2023-01-17T16:47:26.188Z,66.68
2023-01-17T16:48:29.155Z,66.62
2023-01-17T16:49:32.432Z,66.66
2023-01-17T16:50:38.563Z,66.75
2023-01-17T16:51:43.330Z,66.67
2023-01-17T16:52:46.423Z,66.69
2023-01-17T16:53:49.382Z,66.79
2023-01-17T16:54:52.322Z,66.68
2023-01-17T16:55:57.897Z,66.64
2023-01-17T16:57:01.077Z,66.59
2023-01-17T16:58:04.245Z,66.51
2023-01-17T16:59:07.491Z,66.58
2023-01-17T17:00:11.852Z,66.57
2023-01-17T17:01:17.301Z,66.55
2023-01-17T17:02:20.582Z,66.53
2023-01-17T17:03:23.815Z,66.40
2023-01-17T17:04:26.764Z,66.32
2023-01-17T17:05:31.699Z,66.23
2023-01-17T17:06:35.237Z,66.29
2023-01-17T17:07:45.617Z,66.30
2023-01-17T17:08:48.631Z,66.22
2023-01-17T17:09:51.741Z,66.28
2023-01-17T17:10:55.405Z,66.15
2023-01-17T17:11:58.527Z,66.26
2023-01-17T17:13:02.924Z,66.22
2023-01-17T17:14:06.085Z,66.27
2023-01-17T17:15:10.185Z,66.24
2023-01-17T17:16:17.166Z,66.40
2023-01-17T17:17:20.274Z,66.45
2023-01-17T17:18:23.334Z,66.46
2023-01-17T17:19:27.635Z,66.69
2023-01-17T17:20:31.619Z,66.81
2023-01-17T17:21:36.882Z,66.90
2023-01-17T17:22:43.368Z,66.88
2023-01-17T17:23:48.341Z,66.86
2023-01-17T17:24:51.454Z,66.83
2023-01-17T17:25:57.554Z,66.91
2023-01-17T17:27:00.735Z,66.83
2023-01-17T17:28:04.954Z,66.94
2023-01-17T17:29:10.414Z,66.89
2023-01-17T17:30:14.024Z,66.94
2023-01-17T17:31:17.316Z,66.94
2023-01-17T17:32:20.596Z,67.05
2023-01-17T17:33:23.757Z,67.13
2023-01-17T17:34:27.634Z,67.03
2023-01-17T17:35:35.446Z,67.05
2023-01-17T17:36:39.079Z,67.07
2023-01-17T17:37:42.248Z,67.20
2023-01-17T17:38:51.363Z,67.11
2023-01-17T17:39:57.758Z,67.29
2023-01-17T17:41:05.764Z,67.22
2023-01-17T17:42:08.869Z,67.30
2023-01-17T17:43:12.255Z,67.42
2023-01-17T17:44:15.860Z,67.48
2023-01-17T17:45:19.066Z,67.34